sensor_id;sensor_type;location;lat;lon;timestamp;P1;durP1;ratioP1;P2;durP2;ratioP2
870;SDS011;422;51.280;7.236;2023-12-22T00:00:08;7.10;;;2.27;;
870;SDS011;422;51.280;7.236;2023-12-22T00:02:36;10.87;;;2.33;;
870;SDS011;422;51.280;7.236;2023-12-22T00:05:03;10.27;;;2.43;;
870;SDS011;422;51.280;7.236;2023-12-22T00:07:31;7.40;;;3.50;;
870;SDS011;422;51.280;7.236;2023-12-22T00:09:59;10.07;;;3.00;;
870;SDS011;422;51.280;7.236;2023-12-22T00:12:26;9.30;;;3.57;;
870;SDS011;422;51.280;7.236;2023-12-22T00:14:54;8.07;;;2.83;;
870;SDS011;422;51.280;7.236;2023-12-22T00:17:21;11.80;;;2.70;;
870;SDS011;422;51.280;7.236;2023-12-22T00:19:48;7.77;;;2.80;;
870;SDS011;422;51.280;7.236;2023-12-22T00:22:15;10.80;;;2.60;;
870;SDS011;422;51.280;7.236;2023-12-22T00:24:43;9.03;;;3.80;;
870;SDS011;422;51.280;7.236;2023-12-22T00:27:11;12.53;;;4.50;;
870;SDS011;422;51.280;7.236;2023-12-22T00:29:39;9.73;;;2.40;;
870;SDS011;422;51.280;7.236;2023-12-22T00:32:06;10.43;;;2.33;;
870;SDS011;422;51.280;7.236;2023-12-22T00:34:35;6.20;;;2.57;;
870;SDS011;422;51.280;7.236;2023-12-22T00:37:02;9.57;;;2.70;;
870;SDS011;422;51.280;7.236;2023-12-22T00:39:30;11.00;;;3.07;;
870;SDS011;422;51.280;7.236;2023-12-22T00:41:58;10.23;;;3.00;;
870;SDS011;422;51.280;7.236;2023-12-22T00:44:28;9.90;;;3.20;;
870;SDS011;422;51.280;7.236;2023-12-22T00:46:55;9.30;;;3.10;;
870;SDS011;422;51.280;7.236;2023-12-22T00:49:22;7.87;;;3.13;;
870;SDS011;422;51.280;7.236;2023-12-22T00:51:49;13.13;;;3.27;;
870;SDS011;422;51.280;7.236;2023-12-22T00:54:16;8.43;;;2.73;;
870;SDS011;422;51.280;7.236;2023-12-22T00:56:43;9.73;;;3.10;;
870;SDS011;422;51.280;7.236;2023-12-22T00:59:11;8.20;;;3.40;;
870;SDS011;422;51.280;7.236;2023-12-22T01:01:39;8.80;;;3.10;;
870;SDS011;422;51.280;7.236;2023-12-22T01:04:07;12.13;;;3.90;;
870;SDS011;422;51.280;7.236;2023-12-22T01:06:36;8.70;;;2.63;;
870;SDS011;422;51.280;7.236;2023-12-22T01:09:04;10.70;;;2.73;;
870;SDS011;422;51.280;7.236;2023-12-22T01:11:31;10.53;;;3.47;;
870;SDS011;422;51.280;7.236;2023-12-22T01:13:58;10.83;;;2.93;;
870;SDS011;422;51.280;7.236;2023-12-22T01:16:26;7.33;;;2.90;;
870;SDS011;422;51.280;7.236;2023-12-22T01:18:54;9.73;;;3.63;;
870;SDS011;422;51.280;7.236;2023-12-22T01:21:22;9.00;;;2.80;;
870;SDS011;422;51.280;7.236;2023-12-22T01:23:49;10.00;;;3.13;;
870;SDS011;422;51.280;7.236;2023-12-22T01:26:16;9.97;;;3.20;;
870;SDS011;422;51.280;7.236;2023-12-22T01:28:43;10.00;;;3.17;;
870;SDS011;422;51.280;7.236;2023-12-22T01:31:10;11.57;;;4.03;;
870;SDS011;422;51.280;7.236;2023-12-22T01:33:38;7.93;;;3.33;;
870;SDS011;422;51.280;7.236;2023-12-22T01:36:07;8.50;;;3.03;;
870;SDS011;422;51.280;7.236;2023-12-22T01:38:34;9.40;;;2.80;;
870;SDS011;422;51.280;7.236;2023-12-22T01:41:01;14.00;;;3.17;;
870;SDS011;422;51.280;7.236;2023-12-22T01:43:29;8.20;;;3.07;;
870;SDS011;422;51.280;7.236;2023-12-22T01:45:56;8.07;;;2.47;;
870;SDS011;422;51.280;7.236;2023-12-22T01:48:26;5.13;;;2.33;;
870;SDS011;422;51.280;7.236;2023-12-22T01:50:54;6.37;;;2.20;;
870;SDS011;422;51.280;7.236;2023-12-22T01:53:23;6.30;;;2.10;;
870;SDS011;422;51.280;7.236;2023-12-22T01:55:51;7.53;;;2.63;;
870;SDS011;422;51.280;7.236;2023-12-22T01:58:20;7.30;;;2.70;;
870;SDS011;422;51.280;7.236;2023-12-22T02:00:49;4.70;;;1.60;;
870;SDS011;422;51.280;7.236;2023-12-22T02:03:18;4.70;;;2.73;;
870;SDS011;422;51.280;7.236;2023-12-22T02:05:46;5.47;;;2.00;;
870;SDS011;422;51.280;7.236;2023-12-22T02:08:14;10.43;;;2.53;;
870;SDS011;422;51.280;7.236;2023-12-22T02:10:45;6.63;;;2.10;;
870;SDS011;422;51.280;7.236;2023-12-22T02:13:12;11.67;;;2.77;;
870;SDS011;422;51.280;7.236;2023-12-22T02:15:40;5.10;;;2.10;;
870;SDS011;422;51.280;7.236;2023-12-22T02:18:09;10.80;;;3.30;;
870;SDS011;422;51.280;7.236;2023-12-22T02:20:39;5.50;;;2.13;;
870;SDS011;422;51.280;7.236;2023-12-22T02:23:10;11.33;;;2.60;;
870;SDS011;422;51.280;7.236;2023-12-22T02:25:37;4.53;;;2.20;;
870;SDS011;422;51.280;7.236;2023-12-22T02:28:05;5.30;;;2.37;;
870;SDS011;422;51.280;7.236;2023-12-22T02:30:38;7.50;;;2.90;;
870;SDS011;422;51.280;7.236;2023-12-22T02:33:09;7.40;;;2.30;;
870;SDS011;422;51.280;7.236;2023-12-22T02:35:39;10.60;;;4.73;;
870;SDS011;422;51.280;7.236;2023-12-22T02:38:08;4.60;;;2.10;;
870;SDS011;422;51.280;7.236;2023-12-22T02:40:38;3.60;;;1.90;;
870;SDS011;422;51.280;7.236;2023-12-22T02:43:06;7.63;;;2.33;;
870;SDS011;422;51.280;7.236;2023-12-22T02:45:34;10.20;;;2.40;;
870;SDS011;422;51.280;7.236;2023-12-22T02:48:02;8.13;;;2.47;;
870;SDS011;422;51.280;7.236;2023-12-22T02:50:29;7.60;;;2.37;;
870;SDS011;422;51.280;7.236;2023-12-22T02:52:56;7.83;;;2.63;;
870;SDS011;422;51.280;7.236;2023-12-22T02:55:23;9.00;;;3.10;;
870;SDS011;422;51.280;7.236;2023-12-22T02:57:52;7.57;;;1.97;;
870;SDS011;422;51.280;7.236;2023-12-22T03:00:19;8.70;;;2.50;;
870;SDS011;422;51.280;7.236;2023-12-22T03:02:46;7.60;;;3.37;;
870;SDS011;422;51.280;7.236;2023-12-22T03:05:14;12.57;;;3.97;;
870;SDS011;422;51.280;7.236;2023-12-22T03:07:41;8.17;;;3.17;;
870;SDS011;422;51.280;7.236;2023-12-22T03:10:08;9.37;;;2.90;;
870;SDS011;422;51.280;7.236;2023-12-22T03:12:35;9.43;;;3.03;;
870;SDS011;422;51.280;7.236;2023-12-22T03:15:05;13.57;;;3.13;;
870;SDS011;422;51.280;7.236;2023-12-22T03:17:33;11.83;;;3.20;;
870;SDS011;422;51.280;7.236;2023-12-22T03:20:00;6.97;;;2.57;;
870;SDS011;422;51.280;7.236;2023-12-22T03:22:27;6.70;;;2.50;;
870;SDS011;422;51.280;7.236;2023-12-22T03:24:54;10.73;;;3.33;;
870;SDS011;422;51.280;7.236;2023-12-22T03:27:22;8.90;;;2.60;;
870;SDS011;422;51.280;7.236;2023-12-22T03:29:49;8.83;;;3.03;;
870;SDS011;422;51.280;7.236;2023-12-22T03:32:17;4.90;;;2.50;;
870;SDS011;422;51.280;7.236;2023-12-22T03:34:45;7.90;;;2.87;;
870;SDS011;422;51.280;7.236;2023-12-22T03:37:12;7.73;;;2.83;;
870;SDS011;422;51.280;7.236;2023-12-22T03:39:39;11.10;;;3.00;;
870;SDS011;422;51.280;7.236;2023-12-22T03:42:06;9.63;;;3.10;;
870;SDS011;422;51.280;7.236;2023-12-22T03:44:33;6.13;;;3.03;;
870;SDS011;422;51.280;7.236;2023-12-22T03:47:00;8.20;;;2.60;;
870;SDS011;422;51.280;7.236;2023-12-22T03:49:29;8.77;;;3.50;;
870;SDS011;422;51.280;7.236;2023-12-22T03:51:56;8.50;;;3.00;;
870;SDS011;422;51.280;7.236;2023-12-22T03:54:24;11.50;;;2.97;;
870;SDS011;422;51.280;7.236;2023-12-22T03:56:51;12.03;;;3.67;;
870;SDS011;422;51.280;7.236;2023-12-22T03:59:18;8.07;;;2.93;;
870;SDS011;422;51.280;7.236;2023-12-22T04:01:49;8.63;;;2.33;;
870;SDS011;422;51.280;7.236;2023-12-22T04:04:18;10.10;;;3.00;;
870;SDS011;422;51.280;7.236;2023-12-22T04:06:48;11.70;;;3.23;;
870;SDS011;422;51.280;7.236;2023-12-22T04:09:15;11.70;;;3.20;;
870;SDS011;422;51.280;7.236;2023-12-22T04:11:43;9.50;;;2.57;;
870;SDS011;422;51.280;7.236;2023-12-22T04:14:10;12.27;;;2.83;;
870;SDS011;422;51.280;7.236;2023-12-22T04:16:37;12.17;;;3.00;;
870;SDS011;422;51.280;7.236;2023-12-22T04:19:05;8.13;;;3.30;;
870;SDS011;422;51.280;7.236;2023-12-22T04:21:32;12.20;;;3.83;;
870;SDS011;422;51.280;7.236;2023-12-22T04:24:01;9.20;;;3.10;;
870;SDS011;422;51.280;7.236;2023-12-22T04:26:28;11.23;;;3.70;;
870;SDS011;422;51.280;7.236;2023-12-22T04:28:55;10.30;;;2.90;;
870;SDS011;422;51.280;7.236;2023-12-22T04:31:22;12.30;;;4.10;;
870;SDS011;422;51.280;7.236;2023-12-22T04:33:49;9.43;;;3.23;;
870;SDS011;422;51.280;7.236;2023-12-22T04:36:16;11.17;;;3.73;;
870;SDS011;422;51.280;7.236;2023-12-22T04:38:43;11.40;;;4.13;;
870;SDS011;422;51.280;7.236;2023-12-22T04:41:12;14.00;;;3.50;;
870;SDS011;422;51.280;7.236;2023-12-22T04:43:39;23.53;;;4.00;;
870;SDS011;422;51.280;7.236;2023-12-22T04:46:06;8.17;;;3.60;;
870;SDS011;422;51.280;7.236;2023-12-22T04:48:34;11.30;;;3.80;;
870;SDS011;422;51.280;7.236;2023-12-22T04:51:01;17.60;;;3.93;;
870;SDS011;422;51.280;7.236;2023-12-22T04:53:28;18.33;;;4.03;;
870;SDS011;422;51.280;7.236;2023-12-22T04:55:56;10.90;;;4.10;;
870;SDS011;422;51.280;7.236;2023-12-22T04:58:24;13.73;;;3.23;;
870;SDS011;422;51.280;7.236;2023-12-22T05:00:51;10.73;;;3.10;;
870;SDS011;422;51.280;7.236;2023-12-22T05:03:18;15.10;;;4.43;;
870;SDS011;422;51.280;7.236;2023-12-22T05:05:46;12.80;;;3.40;;
870;SDS011;422;51.280;7.236;2023-12-22T05:08:13;11.37;;;3.27;;
870;SDS011;422;51.280;7.236;2023-12-22T05:10:41;12.50;;;4.33;;
870;SDS011;422;51.280;7.236;2023-12-22T05:13:09;9.60;;;3.40;;
870;SDS011;422;51.280;7.236;2023-12-22T05:15:37;10.00;;;3.70;;
870;SDS011;422;51.280;7.236;2023-12-22T05:18:04;9.60;;;4.13;;
870;SDS011;422;51.280;7.236;2023-12-22T05:20:33;10.73;;;3.53;;
870;SDS011;422;51.280;7.236;2023-12-22T05:23:00;11.23;;;3.40;;
870;SDS011;422;51.280;7.236;2023-12-22T05:25:27;11.80;;;3.57;;
870;SDS011;422;51.280;7.236;2023-12-22T05:27:55;14.80;;;3.60;;
870;SDS011;422;51.280;7.236;2023-12-22T05:30:23;15.40;;;3.90;;
870;SDS011;422;51.280;7.236;2023-12-22T05:32:51;6.20;;;2.77;;
870;SDS011;422;51.280;7.236;2023-12-22T05:35:19;8.30;;;2.90;;
870;SDS011;422;51.280;7.236;2023-12-22T05:37:47;8.43;;;3.23;;
870;SDS011;422;51.280;7.236;2023-12-22T05:40:14;9.30;;;3.17;;
870;SDS011;422;51.280;7.236;2023-12-22T05:42:42;8.40;;;3.67;;
870;SDS011;422;51.280;7.236;2023-12-22T05:45:09;7.70;;;2.90;;
870;SDS011;422;51.280;7.236;2023-12-22T05:47:37;8.30;;;3.17;;
870;SDS011;422;51.280;7.236;2023-12-22T05:50:06;10.70;;;3.20;;
870;SDS011;422;51.280;7.236;2023-12-22T05:52:36;7.17;;;3.50;;
870;SDS011;422;51.280;7.236;2023-12-22T05:55:03;13.13;;;3.80;;
870;SDS011;422;51.280;7.236;2023-12-22T05:57:31;9.13;;;3.47;;
870;SDS011;422;51.280;7.236;2023-12-22T05:59:58;6.90;;;3.90;;
870;SDS011;422;51.280;7.236;2023-12-22T06:02:25;7.17;;;3.13;;
870;SDS011;422;51.280;7.236;2023-12-22T06:04:53;5.63;;;2.83;;
870;SDS011;422;51.280;7.236;2023-12-22T06:07:21;4.43;;;2.67;;
870;SDS011;422;51.280;7.236;2023-12-22T06:09:49;7.93;;;2.90;;
870;SDS011;422;51.280;7.236;2023-12-22T06:12:16;5.97;;;2.60;;
870;SDS011;422;51.280;7.236;2023-12-22T06:14:43;5.23;;;2.50;;
870;SDS011;422;51.280;7.236;2023-12-22T06:17:11;5.27;;;2.30;;
870;SDS011;422;51.280;7.236;2023-12-22T06:19:38;5.93;;;2.50;;
870;SDS011;422;51.280;7.236;2023-12-22T06:22:05;7.37;;;2.93;;
870;SDS011;422;51.280;7.236;2023-12-22T06:24:35;6.83;;;2.40;;
870;SDS011;422;51.280;7.236;2023-12-22T06:27:03;12.93;;;2.63;;
870;SDS011;422;51.280;7.236;2023-12-22T06:29:31;7.17;;;2.43;;
870;SDS011;422;51.280;7.236;2023-12-22T06:31:59;13.43;;;3.13;;
870;SDS011;422;51.280;7.236;2023-12-22T06:34:27;12.13;;;3.60;;
870;SDS011;422;51.280;7.236;2023-12-22T06:36:54;18.67;;;3.90;;
870;SDS011;422;51.280;7.236;2023-12-22T06:39:21;10.43;;;3.93;;
870;SDS011;422;51.280;7.236;2023-12-22T06:41:49;14.53;;;4.20;;
870;SDS011;422;51.280;7.236;2023-12-22T06:44:17;11.90;;;3.47;;
870;SDS011;422;51.280;7.236;2023-12-22T06:46:44;8.67;;;3.60;;
870;SDS011;422;51.280;7.236;2023-12-22T06:49:11;11.80;;;3.80;;
870;SDS011;422;51.280;7.236;2023-12-22T06:51:40;10.00;;;2.90;;
870;SDS011;422;51.280;7.236;2023-12-22T06:54:07;16.27;;;4.00;;
870;SDS011;422;51.280;7.236;2023-12-22T06:56:34;15.03;;;3.67;;
870;SDS011;422;51.280;7.236;2023-12-22T06:59:03;13.00;;;4.93;;
870;SDS011;422;51.280;7.236;2023-12-22T07:01:30;15.93;;;4.07;;
870;SDS011;422;51.280;7.236;2023-12-22T07:03:58;17.40;;;4.30;;
870;SDS011;422;51.280;7.236;2023-12-22T07:06:27;15.00;;;5.83;;
870;SDS011;422;51.280;7.236;2023-12-22T07:08:56;12.27;;;4.33;;
870;SDS011;422;51.280;7.236;2023-12-22T07:11:39;14.10;;;5.27;;
870;SDS011;422;51.280;7.236;2023-12-22T07:14:09;13.67;;;5.33;;
870;SDS011;422;51.280;7.236;2023-12-22T07:16:36;11.00;;;5.07;;
870;SDS011;422;51.280;7.236;2023-12-22T07:19:03;10.20;;;3.67;;
870;SDS011;422;51.280;7.236;2023-12-22T07:21:31;9.30;;;4.20;;
870;SDS011;422;51.280;7.236;2023-12-22T07:23:58;14.13;;;5.00;;
870;SDS011;422;51.280;7.236;2023-12-22T07:26:26;18.37;;;4.57;;
870;SDS011;422;51.280;7.236;2023-12-22T07:28:53;11.50;;;3.80;;
870;SDS011;422;51.280;7.236;2023-12-22T07:31:22;12.47;;;3.60;;
870;SDS011;422;51.280;7.236;2023-12-22T07:33:49;8.90;;;3.80;;
870;SDS011;422;51.280;7.236;2023-12-22T07:36:17;8.80;;;4.87;;
870;SDS011;422;51.280;7.236;2023-12-22T07:38:46;9.87;;;4.00;;
870;SDS011;422;51.280;7.236;2023-12-22T07:41:14;17.90;;;4.10;;
870;SDS011;422;51.280;7.236;2023-12-22T07:43:41;13.80;;;3.83;;
870;SDS011;422;51.280;7.236;2023-12-22T07:46:08;12.10;;;4.13;;
870;SDS011;422;51.280;7.236;2023-12-22T07:48:44;11.13;;;3.17;;
870;SDS011;422;51.280;7.236;2023-12-22T07:51:11;9.73;;;3.90;;
870;SDS011;422;51.280;7.236;2023-12-22T07:53:39;15.70;;;4.43;;
870;SDS011;422;51.280;7.236;2023-12-22T07:56:07;12.80;;;4.50;;
870;SDS011;422;51.280;7.236;2023-12-22T07:58:35;12.30;;;3.87;;
870;SDS011;422;51.280;7.236;2023-12-22T08:01:03;16.33;;;5.10;;
870;SDS011;422;51.280;7.236;2023-12-22T08:03:30;20.33;;;5.27;;
870;SDS011;422;51.280;7.236;2023-12-22T08:05:59;13.07;;;4.30;;
870;SDS011;422;51.280;7.236;2023-12-22T08:08:26;13.53;;;4.80;;
870;SDS011;422;51.280;7.236;2023-12-22T08:10:54;18.70;;;4.30;;
870;SDS011;422;51.280;7.236;2023-12-22T08:13:21;11.63;;;4.03;;
870;SDS011;422;51.280;7.236;2023-12-22T08:15:49;13.63;;;4.50;;
870;SDS011;422;51.280;7.236;2023-12-22T08:18:19;16.40;;;5.00;;
870;SDS011;422;51.280;7.236;2023-12-22T08:20:47;9.50;;;4.40;;
870;SDS011;422;51.280;7.236;2023-12-22T08:23:16;13.17;;;4.30;;
870;SDS011;422;51.280;7.236;2023-12-22T08:25:43;17.23;;;5.77;;
870;SDS011;422;51.280;7.236;2023-12-22T08:28:11;12.23;;;4.80;;
870;SDS011;422;51.280;7.236;2023-12-22T08:30:38;15.03;;;5.00;;
870;SDS011;422;51.280;7.236;2023-12-22T08:33:06;16.77;;;4.60;;
870;SDS011;422;51.280;7.236;2023-12-22T08:35:33;13.77;;;5.30;;
870;SDS011;422;51.280;7.236;2023-12-22T08:38:00;14.10;;;5.40;;
870;SDS011;422;51.280;7.236;2023-12-22T08:40:29;12.53;;;4.43;;
870;SDS011;422;51.280;7.236;2023-12-22T08:42:57;14.23;;;5.07;;
870;SDS011;422;51.280;7.236;2023-12-22T08:45:26;25.90;;;6.43;;
870;SDS011;422;51.280;7.236;2023-12-22T08:47:56;17.50;;;4.70;;
870;SDS011;422;51.280;7.236;2023-12-22T08:50:23;17.13;;;6.50;;
870;SDS011;422;51.280;7.236;2023-12-22T08:52:51;19.60;;;6.10;;
870;SDS011;422;51.280;7.236;2023-12-22T08:55:18;20.77;;;6.97;;
870;SDS011;422;51.280;7.236;2023-12-22T08:57:49;18.07;;;6.03;;
870;SDS011;422;51.280;7.236;2023-12-22T09:00:16;18.33;;;5.93;;
870;SDS011;422;51.280;7.236;2023-12-22T09:02:44;16.23;;;5.30;;
870;SDS011;422;51.280;7.236;2023-12-22T09:05:11;22.03;;;5.50;;
870;SDS011;422;51.280;7.236;2023-12-22T09:07:38;24.03;;;5.70;;
870;SDS011;422;51.280;7.236;2023-12-22T09:10:06;20.13;;;6.80;;
870;SDS011;422;51.280;7.236;2023-12-22T09:12:33;18.53;;;6.90;;
870;SDS011;422;51.280;7.236;2023-12-22T09:15:02;23.37;;;6.63;;
870;SDS011;422;51.280;7.236;2023-12-22T09:17:31;27.27;;;6.97;;
870;SDS011;422;51.280;7.236;2023-12-22T09:19:59;16.80;;;5.63;;
870;SDS011;422;51.280;7.236;2023-12-22T09:22:27;21.63;;;7.93;;
870;SDS011;422;51.280;7.236;2023-12-22T09:24:54;23.80;;;7.77;;
870;SDS011;422;51.280;7.236;2023-12-22T09:27:22;30.90;;;7.47;;
870;SDS011;422;51.280;7.236;2023-12-22T09:29:49;25.50;;;7.17;;
870;SDS011;422;51.280;7.236;2023-12-22T09:32:18;30.77;;;7.70;;
870;SDS011;422;51.280;7.236;2023-12-22T09:34:45;20.40;;;6.90;;
870;SDS011;422;51.280;7.236;2023-12-22T09:37:13;25.33;;;7.40;;
870;SDS011;422;51.280;7.236;2023-12-22T09:39:41;33.57;;;7.50;;
870;SDS011;422;51.280;7.236;2023-12-22T09:42:09;25.80;;;6.80;;
870;SDS011;422;51.280;7.236;2023-12-22T09:44:36;20.97;;;6.03;;
870;SDS011;422;51.280;7.236;2023-12-22T09:47:08;12.07;;;6.10;;
870;SDS011;422;51.280;7.236;2023-12-22T09:49:39;25.33;;;8.07;;
870;SDS011;422;51.280;7.236;2023-12-22T09:52:08;27.97;;;7.83;;
870;SDS011;422;51.280;7.236;2023-12-22T09:54:38;24.70;;;7.93;;
870;SDS011;422;51.280;7.236;2023-12-22T09:57:07;18.57;;;6.80;;
870;SDS011;422;51.280;7.236;2023-12-22T09:59:35;26.43;;;7.37;;
870;SDS011;422;51.280;7.236;2023-12-22T10:02:04;19.17;;;6.77;;
870;SDS011;422;51.280;7.236;2023-12-22T10:04:33;28.30;;;7.37;;
870;SDS011;422;51.280;7.236;2023-12-22T10:07:02;21.57;;;7.50;;
870;SDS011;422;51.280;7.236;2023-12-22T10:09:30;23.00;;;7.40;;
870;SDS011;422;51.280;7.236;2023-12-22T10:11:58;31.80;;;9.50;;
870;SDS011;422;51.280;7.236;2023-12-22T10:14:28;15.90;;;6.03;;
870;SDS011;422;51.280;7.236;2023-12-22T10:16:57;30.27;;;8.23;;
870;SDS011;422;51.280;7.236;2023-12-22T10:19:24;32.50;;;9.27;;
870;SDS011;422;51.280;7.236;2023-12-22T10:21:52;23.10;;;7.37;;
870;SDS011;422;51.280;7.236;2023-12-22T10:24:39;25.23;;;7.50;;
870;SDS011;422;51.280;7.236;2023-12-22T10:27:08;36.27;;;8.97;;
870;SDS011;422;51.280;7.236;2023-12-22T10:29:37;26.70;;;7.80;;
870;SDS011;422;51.280;7.236;2023-12-22T10:32:05;16.63;;;6.00;;
870;SDS011;422;51.280;7.236;2023-12-22T10:34:33;19.77;;;6.70;;
870;SDS011;422;51.280;7.236;2023-12-22T10:37:01;17.00;;;6.03;;
870;SDS011;422;51.280;7.236;2023-12-22T10:39:34;24.10;;;6.20;;
870;SDS011;422;51.280;7.236;2023-12-22T10:42:05;16.70;;;5.47;;
870;SDS011;422;51.280;7.236;2023-12-22T10:44:33;17.23;;;5.43;;
870;SDS011;422;51.280;7.236;2023-12-22T10:47:01;17.00;;;5.00;;
870;SDS011;422;51.280;7.236;2023-12-22T10:49:30;18.80;;;5.03;;
870;SDS011;422;51.280;7.236;2023-12-22T10:51:59;14.53;;;5.50;;
870;SDS011;422;51.280;7.236;2023-12-22T10:54:26;19.53;;;5.00;;
870;SDS011;422;51.280;7.236;2023-12-22T10:56:54;10.43;;;3.10;;
870;SDS011;422;51.280;7.236;2023-12-22T10:59:27;9.90;;;3.60;;
870;SDS011;422;51.280;7.236;2023-12-22T11:01:56;11.33;;;2.73;;
870;SDS011;422;51.280;7.236;2023-12-22T11:04:25;5.37;;;2.53;;
870;SDS011;422;51.280;7.236;2023-12-22T11:06:58;7.00;;;3.00;;
870;SDS011;422;51.280;7.236;2023-12-22T11:09:30;10.93;;;2.83;;
870;SDS011;422;51.280;7.236;2023-12-22T11:11:58;5.87;;;2.47;;
870;SDS011;422;51.280;7.236;2023-12-22T11:14:30;5.33;;;2.40;;
870;SDS011;422;51.280;7.236;2023-12-22T11:16:59;3.97;;;2.13;;
870;SDS011;422;51.280;7.236;2023-12-22T11:19:27;4.20;;;2.27;;
870;SDS011;422;51.280;7.236;2023-12-22T11:21:57;6.60;;;2.50;;
870;SDS011;422;51.280;7.236;2023-12-22T11:24:28;3.80;;;2.33;;
870;SDS011;422;51.280;7.236;2023-12-22T11:26:57;5.33;;;2.50;;
870;SDS011;422;51.280;7.236;2023-12-22T11:29:25;3.60;;;1.80;;
870;SDS011;422;51.280;7.236;2023-12-22T11:31:55;3.57;;;1.97;;
870;SDS011;422;51.280;7.236;2023-12-22T11:34:27;4.77;;;2.10;;
870;SDS011;422;51.280;7.236;2023-12-22T11:36:57;3.70;;;2.30;;
870;SDS011;422;51.280;7.236;2023-12-22T11:39:26;6.30;;;2.90;;
870;SDS011;422;51.280;7.236;2023-12-22T11:41:55;7.20;;;3.37;;
870;SDS011;422;51.280;7.236;2023-12-22T11:44:23;5.37;;;3.30;;
870;SDS011;422;51.280;7.236;2023-12-22T11:47:04;5.00;;;4.13;;
870;SDS011;422;51.280;7.236;2023-12-22T11:49:32;5.60;;;4.33;;
870;SDS011;422;51.280;7.236;2023-12-22T11:52:09;8.60;;;5.40;;
870;SDS011;422;51.280;7.236;2023-12-22T11:54:43;10.60;;;6.77;;
870;SDS011;422;51.280;7.236;2023-12-22T11:59:58;9.10;;;6.50;;
870;SDS011;422;51.280;7.236;2023-12-22T12:02:33;7.87;;;5.23;;
870;SDS011;422;51.280;7.236;2023-12-22T12:05:03;7.33;;;5.73;;
870;SDS011;422;51.280;7.236;2023-12-22T12:07:36;7.20;;;4.70;;
870;SDS011;422;51.280;7.236;2023-12-22T12:10:05;6.47;;;4.40;;
870;SDS011;422;51.280;7.236;2023-12-22T12:12:33;5.63;;;4.40;;
870;SDS011;422;51.280;7.236;2023-12-22T12:15:06;8.03;;;4.77;;
870;SDS011;422;51.280;7.236;2023-12-22T12:17:39;7.23;;;4.47;;
870;SDS011;422;51.280;7.236;2023-12-22T12:20:09;6.60;;;4.87;;
870;SDS011;422;51.280;7.236;2023-12-22T12:22:37;8.13;;;5.10;;
870;SDS011;422;51.280;7.236;2023-12-22T12:25:08;5.57;;;3.90;;
870;SDS011;422;51.280;7.236;2023-12-22T12:27:37;10.37;;;4.10;;
870;SDS011;422;51.280;7.236;2023-12-22T12:30:11;8.37;;;4.10;;
870;SDS011;422;51.280;7.236;2023-12-22T12:32:46;4.30;;;3.40;;
870;SDS011;422;51.280;7.236;2023-12-22T12:35:15;5.50;;;3.60;;
870;SDS011;422;51.280;7.236;2023-12-22T12:37:44;7.03;;;4.57;;
870;SDS011;422;51.280;7.236;2023-12-22T12:40:12;6.70;;;3.87;;
870;SDS011;422;51.280;7.236;2023-12-22T12:42:44;8.10;;;4.00;;
870;SDS011;422;51.280;7.236;2023-12-22T12:45:12;5.77;;;3.80;;
870;SDS011;422;51.280;7.236;2023-12-22T12:47:39;5.30;;;3.70;;
870;SDS011;422;51.280;7.236;2023-12-22T12:50:09;5.70;;;3.50;;
870;SDS011;422;51.280;7.236;2023-12-22T12:52:37;7.07;;;3.90;;
870;SDS011;422;51.280;7.236;2023-12-22T12:55:06;9.03;;;4.30;;
870;SDS011;422;51.280;7.236;2023-12-22T12:57:33;6.90;;;4.53;;
870;SDS011;422;51.280;7.236;2023-12-22T13:00:00;11.97;;;4.30;;
870;SDS011;422;51.280;7.236;2023-12-22T13:02:28;5.27;;;3.40;;
870;SDS011;422;51.280;7.236;2023-12-22T13:04:56;4.17;;;3.53;;
870;SDS011;422;51.280;7.236;2023-12-22T13:07:25;9.43;;;3.40;;
870;SDS011;422;51.280;7.236;2023-12-22T13:09:52;4.53;;;2.50;;
870;SDS011;422;51.280;7.236;2023-12-22T13:12:22;4.13;;;2.53;;
870;SDS011;422;51.280;7.236;2023-12-22T13:14:50;5.40;;;2.73;;
870;SDS011;422;51.280;7.236;2023-12-22T13:17:18;4.57;;;2.67;;
870;SDS011;422;51.280;7.236;2023-12-22T13:19:46;8.83;;;4.43;;
870;SDS011;422;51.280;7.236;2023-12-22T13:22:15;6.67;;;4.20;;
870;SDS011;422;51.280;7.236;2023-12-22T13:24:54;8.70;;;3.90;;
870;SDS011;422;51.280;7.236;2023-12-22T13:27:23;8.93;;;4.10;;
870;SDS011;422;51.280;7.236;2023-12-22T13:29:50;5.53;;;3.73;;
870;SDS011;422;51.280;7.236;2023-12-22T13:32:19;10.27;;;3.27;;
870;SDS011;422;51.280;7.236;2023-12-22T13:34:49;3.73;;;2.77;;
870;SDS011;422;51.280;7.236;2023-12-22T13:37:18;6.80;;;3.70;;
870;SDS011;422;51.280;7.236;2023-12-22T13:39:45;5.50;;;3.60;;
870;SDS011;422;51.280;7.236;2023-12-22T13:42:15;5.60;;;3.90;;
870;SDS011;422;51.280;7.236;2023-12-22T13:44:44;8.17;;;4.27;;
870;SDS011;422;51.280;7.236;2023-12-22T13:47:14;5.40;;;4.07;;
870;SDS011;422;51.280;7.236;2023-12-22T13:49:42;5.80;;;4.00;;
870;SDS011;422;51.280;7.236;2023-12-22T13:52:24;9.53;;;4.93;;
870;SDS011;422;51.280;7.236;2023-12-22T13:54:52;14.70;;;7.60;;
870;SDS011;422;51.280;7.236;2023-12-22T13:57:24;9.50;;;6.60;;
870;SDS011;422;51.280;7.236;2023-12-22T13:59:51;8.17;;;5.20;;
870;SDS011;422;51.280;7.236;2023-12-22T14:02:19;6.10;;;4.80;;
870;SDS011;422;51.280;7.236;2023-12-22T14:04:49;6.33;;;4.63;;
870;SDS011;422;51.280;7.236;2023-12-22T14:07:16;10.93;;;5.00;;
870;SDS011;422;51.280;7.236;2023-12-22T14:09:44;9.60;;;4.80;;
870;SDS011;422;51.280;7.236;2023-12-22T14:12:11;6.47;;;4.43;;
870;SDS011;422;51.280;7.236;2023-12-22T14:14:40;7.93;;;4.50;;
870;SDS011;422;51.280;7.236;2023-12-22T14:17:08;8.23;;;3.90;;
870;SDS011;422;51.280;7.236;2023-12-22T14:19:35;16.03;;;5.00;;
870;SDS011;422;51.280;7.236;2023-12-22T14:22:03;6.90;;;4.10;;
870;SDS011;422;51.280;7.236;2023-12-22T14:24:30;9.80;;;4.50;;
870;SDS011;422;51.280;7.236;2023-12-22T14:26:58;7.93;;;5.30;;
870;SDS011;422;51.280;7.236;2023-12-22T14:29:25;8.30;;;4.80;;
870;SDS011;422;51.280;7.236;2023-12-22T14:31:54;8.70;;;5.10;;
870;SDS011;422;51.280;7.236;2023-12-22T14:34:21;6.27;;;3.60;;
870;SDS011;422;51.280;7.236;2023-12-22T14:36:49;7.70;;;4.40;;
870;SDS011;422;51.280;7.236;2023-12-22T14:39:16;8.57;;;4.53;;
870;SDS011;422;51.280;7.236;2023-12-22T14:41:44;6.60;;;3.80;;
870;SDS011;422;51.280;7.236;2023-12-22T14:44:11;6.83;;;3.77;;
870;SDS011;422;51.280;7.236;2023-12-22T14:46:39;6.53;;;3.23;;
870;SDS011;422;51.280;7.236;2023-12-22T14:49:08;9.43;;;4.00;;
870;SDS011;422;51.280;7.236;2023-12-22T14:51:36;6.43;;;3.80;;
870;SDS011;422;51.280;7.236;2023-12-22T14:54:04;5.97;;;3.67;;
870;SDS011;422;51.280;7.236;2023-12-22T14:56:31;6.60;;;4.07;;
870;SDS011;422;51.280;7.236;2023-12-22T14:58:59;6.97;;;4.10;;
870;SDS011;422;51.280;7.236;2023-12-22T15:01:26;5.60;;;4.17;;
870;SDS011;422;51.280;7.236;2023-12-22T15:03:54;8.47;;;4.90;;
870;SDS011;422;51.280;7.236;2023-12-22T15:06:23;13.80;;;5.27;;
870;SDS011;422;51.280;7.236;2023-12-22T15:08:50;12.37;;;4.23;;
870;SDS011;422;51.280;7.236;2023-12-22T15:11:18;6.43;;;3.83;;
870;SDS011;422;51.280;7.236;2023-12-22T15:13:45;7.03;;;4.50;;
870;SDS011;422;51.280;7.236;2023-12-22T15:16:13;6.23;;;3.80;;
870;SDS011;422;51.280;7.236;2023-12-22T15:18:41;6.33;;;4.47;;
870;SDS011;422;51.280;7.236;2023-12-22T15:21:08;7.87;;;4.40;;
870;SDS011;422;51.280;7.236;2023-12-22T15:23:40;10.60;;;4.60;;
870;SDS011;422;51.280;7.236;2023-12-22T15:26:08;6.73;;;4.23;;
870;SDS011;422;51.280;7.236;2023-12-22T15:28:46;10.00;;;3.97;;
870;SDS011;422;51.280;7.236;2023-12-22T15:31:13;7.27;;;5.23;;
870;SDS011;422;51.280;7.236;2023-12-22T15:33:41;6.67;;;4.53;;
870;SDS011;422;51.280;7.236;2023-12-22T15:36:08;4.80;;;3.33;;
870;SDS011;422;51.280;7.236;2023-12-22T15:38:36;6.13;;;2.77;;
870;SDS011;422;51.280;7.236;2023-12-22T15:41:05;5.63;;;3.17;;
870;SDS011;422;51.280;7.236;2023-12-22T15:43:32;7.20;;;4.23;;
870;SDS011;422;51.280;7.236;2023-12-22T15:46:03;8.30;;;7.40;;